sensor_id;sensor_type;location;lat;lon;timestamp;pressure;altitude;pressure_sealevel;temperature;humidity
37852;BME280;23691;52.486;4.650;2022-12-07T00:01:15;101925.44;;;5.82;81.83
37852;BME280;23691;52.486;4.650;2022-12-07T00:03:43;101929.91;;;5.81;81.73
37852;BME280;23691;52.486;4.650;2022-12-07T00:06:10;101923.94;;;5.78;81.83
37852;BME280;23691;52.486;4.650;2022-12-07T00:08:36;101920.34;;;5.79;81.88
37852;BME280;23691;52.486;4.650;2022-12-07T00:11:12;101916.72;;;5.80;81.90
37852;BME280;23691;52.486;4.650;2022-12-07T00:13:40;101911.63;;;5.77;81.92
37852;BME280;23691;52.486;4.650;2022-12-07T00:16:11;101906.94;;;5.80;81.93
37852;BME280;23691;52.486;4.650;2022-12-07T00:18:37;101908.53;;;5.83;82.01
37852;BME280;23691;52.486;4.650;2022-12-07T00:21:18;101895.25;;;5.83;81.86
37852;BME280;23691;52.486;4.650;2022-12-07T00:23:45;101895.47;;;5.80;81.63
37852;BME280;23691;52.486;4.650;2022-12-07T00:26:13;101898.34;;;5.77;81.55
37852;BME280;23691;52.486;4.650;2022-12-07T00:28:40;101895.03;;;5.73;81.54
37852;BME280;23691;52.486;4.650;2022-12-07T00:31:08;101894.53;;;5.68;81.57
37852;BME280;23691;52.486;4.650;2022-12-07T00:33:35;101891.47;;;5.62;81.58
37852;BME280;23691;52.486;4.650;2022-12-07T00:36:02;101890.06;;;5.56;81.48
37852;BME280;23691;52.486;4.650;2022-12-07T00:38:30;101886.03;;;5.50;81.14
37852;BME280;23691;52.486;4.650;2022-12-07T00:41:03;101892.63;;;5.45;81.42
37852;BME280;23691;52.486;4.650;2022-12-07T00:43:29;101897.41;;;5.40;81.85
37852;BME280;23691;52.486;4.650;2022-12-07T00:45:55;101902.06;;;5.36;81.71
37852;BME280;23691;52.486;4.650;2022-12-07T00:48:21;101910.31;;;5.31;82.04
37852;BME280;23691;52.486;4.650;2022-12-07T00:50:48;101905.78;;;5.33;82.40
37852;BME280;23691;52.486;4.650;2022-12-07T00:53:14;101897.28;;;5.41;82.62
37852;BME280;23691;52.486;4.650;2022-12-07T00:55:39;101899.53;;;5.47;82.72
37852;BME280;23691;52.486;4.650;2022-12-07T00:58:05;101904.53;;;5.52;82.90
37852;BME280;23691;52.486;4.650;2022-12-07T01:00:31;101896.44;;;5.53;83.13
37852;BME280;23691;52.486;4.650;2022-12-07T01:02:56;101904.22;;;5.56;83.24
37852;BME280;23691;52.486;4.650;2022-12-07T01:05:22;101887.84;;;5.63;83.15
37852;BME280;23691;52.486;4.650;2022-12-07T01:07:48;101879.56;;;5.67;83.06
37852;BME280;23691;52.486;4.650;2022-12-07T01:10:14;101881.16;;;5.70;83.19
37852;BME280;23691;52.486;4.650;2022-12-07T01:12:40;101884.66;;;5.70;82.98
37852;BME280;23691;52.486;4.650;2022-12-07T01:15:06;101892.84;;;5.67;82.99
37852;BME280;23691;52.486;4.650;2022-12-07T01:17:31;101888.81;;;5.62;82.74
37852;BME280;23691;52.486;4.650;2022-12-07T01:19:57;101883.91;;;5.55;82.90
37852;BME280;23691;52.486;4.650;2022-12-07T01:22:25;101890.41;;;5.51;83.10
37852;BME280;23691;52.486;4.650;2022-12-07T01:24:50;101891.66;;;5.46;83.22
37852;BME280;23691;52.486;4.650;2022-12-07T01:27:15;101885.72;;;5.42;83.18
37852;BME280;23691;52.486;4.650;2022-12-07T01:29:41;101878.81;;;5.40;83.08
37852;BME280;23691;52.486;4.650;2022-12-07T01:32:06;101883.38;;;5.37;83.12
37852;BME280;23691;52.486;4.650;2022-12-07T01:34:32;101885.28;;;5.35;83.11
37852;BME280;23691;52.486;4.650;2022-12-07T01:36:57;101886.13;;;5.36;82.94
37852;BME280;23691;52.486;4.650;2022-12-07T01:39:23;101882.72;;;5.34;83.11
37852;BME280;23691;52.486;4.650;2022-12-07T01:41:48;101887.31;;;5.32;83.15
37852;BME280;23691;52.486;4.650;2022-12-07T01:49:34;101885.19;;;5.24;83.07
37852;BME280;23691;52.486;4.650;2022-12-07T01:52:13;101882.41;;;5.26;83.08
37852;BME280;23691;52.486;4.650;2022-12-07T01:54:42;101888.78;;;5.23;82.96
37852;BME280;23691;52.486;4.650;2022-12-07T01:57:10;101890.69;;;5.21;82.78
37852;BME280;23691;52.486;4.650;2022-12-07T01:59:37;101881.03;;;5.20;82.93
37852;BME280;23691;52.486;4.650;2022-12-07T02:02:08;101870.31;;;5.22;82.91
37852;BME280;23691;52.486;4.650;2022-12-07T02:04:36;101871.19;;;5.22;82.72
37852;BME280;23691;52.486;4.650;2022-12-07T02:07:03;101868.41;;;5.24;82.69
37852;BME280;23691;52.486;4.650;2022-12-07T02:09:29;101866.63;;;5.24;82.90
37852;BME280;23691;52.486;4.650;2022-12-07T02:11:55;101870.22;;;5.23;83.05
37852;BME280;23691;52.486;4.650;2022-12-07T02:14:21;101858.53;;;5.26;82.70
37852;BME280;23691;52.486;4.650;2022-12-07T02:17:14;101867.34;;;5.26;82.91
37852;BME280;23691;52.486;4.650;2022-12-07T02:30:54;101843.25;;;5.42;82.62
37852;BME280;23691;52.486;4.650;2022-12-07T02:35:59;101841.13;;;5.47;82.37
37852;BME280;23691;52.486;4.650;2022-12-07T02:38:31;101839.41;;;5.46;82.29
37852;BME280;23691;52.486;4.650;2022-12-07T02:41:07;101847.38;;;5.46;81.93
37852;BME280;23691;52.486;4.650;2022-12-07T02:43:47;101847.94;;;5.51;81.83
37852;BME280;23691;52.486;4.650;2022-12-07T02:47:04;101850.38;;;5.54;81.74
37852;BME280;23691;52.486;4.650;2022-12-07T02:49:05;101848.34;;;5.58;81.39
37852;BME280;23691;52.486;4.650;2022-12-07T02:51:33;101846.34;;;5.62;81.60
37852;BME280;23691;52.486;4.650;2022-12-07T02:53:59;101843.44;;;5.65;81.50
37852;BME280;23691;52.486;4.650;2022-12-07T03:02:15;101848.88;;;5.76;81.05
37852;BME280;23691;52.486;4.650;2022-12-07T03:07:39;101843.56;;;5.76;80.93
37852;BME280;23691;52.486;4.650;2022-12-07T03:12:57;101837.38;;;5.75;80.73
37852;BME280;23691;52.486;4.650;2022-12-07T03:18:05;101841.75;;;5.76;80.32
37852;BME280;23691;52.486;4.650;2022-12-07T03:20:34;101844.19;;;5.79;80.11
37852;BME280;23691;52.486;4.650;2022-12-07T03:23:05;101838.97;;;5.78;79.88
37852;BME280;23691;52.486;4.650;2022-12-07T03:25:36;101840.03;;;5.75;79.55
37852;BME280;23691;52.486;4.650;2022-12-07T03:28:05;101838.13;;;5.77;79.45
37852;BME280;23691;52.486;4.650;2022-12-07T03:30:47;101847.16;;;5.75;79.41
37852;BME280;23691;52.486;4.650;2022-12-07T03:33:19;101843.34;;;5.79;79.10
37852;BME280;23691;52.486;4.650;2022-12-07T03:36:14;101832.25;;;5.85;78.87
37852;BME280;23691;52.486;4.650;2022-12-07T03:38:46;101835.56;;;5.89;79.00
37852;BME280;23691;52.486;4.650;2022-12-07T03:41:26;101832.56;;;5.93;78.94
37852;BME280;23691;52.486;4.650;2022-12-07T03:43:54;101827.25;;;5.93;78.56
37852;BME280;23691;52.486;4.650;2022-12-07T03:46:43;101833.31;;;5.95;78.69
37852;BME280;23691;52.486;4.650;2022-12-07T03:52:02;101822.38;;;6.00;78.24
37852;BME280;23691;52.486;4.650;2022-12-07T03:54:52;101823.09;;;6.02;78.06
37852;BME280;23691;52.486;4.650;2022-12-07T03:57:22;101820.44;;;6.02;77.97
37852;BME280;23691;52.486;4.650;2022-12-07T03:59:49;101815.97;;;6.02;77.82
37852;BME280;23691;52.486;4.650;2022-12-07T04:02:16;101823.75;;;6.06;77.69
37852;BME280;23691;52.486;4.650;2022-12-07T04:04:42;101809.41;;;6.08;77.55
37852;BME280;23691;52.486;4.650;2022-12-07T04:07:08;101809.16;;;6.11;77.36
37852;BME280;23691;52.486;4.650;2022-12-07T04:09:34;101816.28;;;6.11;77.26
37852;BME280;23691;52.486;4.650;2022-12-07T04:11:59;101811.94;;;6.10;77.20
37852;BME280;23691;52.486;4.650;2022-12-07T04:14:25;101803.84;;;6.11;76.88
37852;BME280;23691;52.486;4.650;2022-12-07T04:16:59;101818.72;;;6.14;76.88
37852;BME280;23691;52.486;4.650;2022-12-07T04:19:27;101807.25;;;6.13;77.19
37852;BME280;23691;52.486;4.650;2022-12-07T04:21:54;101807.34;;;6.12;76.36
37852;BME280;23691;52.486;4.650;2022-12-07T04:24:20;101814.47;;;6.11;75.34
37852;BME280;23691;52.486;4.650;2022-12-07T04:26:46;101810.97;;;6.11;74.94
37852;BME280;23691;52.486;4.650;2022-12-07T04:29:12;101810.47;;;6.06;74.37
37852;BME280;23691;52.486;4.650;2022-12-07T04:31:38;101811.41;;;6.05;74.21
37852;BME280;23691;52.486;4.650;2022-12-07T04:34:04;101823.00;;;6.04;74.36
37852;BME280;23691;52.486;4.650;2022-12-07T04:36:29;101828.44;;;6.02;74.25
37852;BME280;23691;52.486;4.650;2022-12-07T04:38:55;101829.50;;;5.99;73.97
37852;BME280;23691;52.486;4.650;2022-12-07T04:41:22;101829.50;;;5.99;74.13
37852;BME280;23691;52.486;4.650;2022-12-07T04:43:54;101826.84;;;5.99;74.33
37852;BME280;23691;52.486;4.650;2022-12-07T04:46:20;101821.53;;;5.99;74.94
37852;BME280;23691;52.486;4.650;2022-12-07T04:48:46;101817.69;;;6.04;75.16
37852;BME280;23691;52.486;4.650;2022-12-07T04:51:12;101811.19;;;6.08;75.25
37852;BME280;23691;52.486;4.650;2022-12-07T04:53:37;101801.19;;;6.11;75.40
37852;BME280;23691;52.486;4.650;2022-12-07T04:56:03;101797.69;;;6.11;75.54
37852;BME280;23691;52.486;4.650;2022-12-07T04:58:28;101800.34;;;6.11;75.74
37852;BME280;23691;52.486;4.650;2022-12-07T05:00:54;101800.47;;;6.09;75.81
37852;BME280;23691;52.486;4.650;2022-12-07T05:03:20;101793.47;;;6.08;76.32
37852;BME280;23691;52.486;4.650;2022-12-07T05:05:46;101810.47;;;6.06;76.30
37852;BME280;23691;52.486;4.650;2022-12-07T05:08:11;101808.88;;;6.03;76.39
37852;BME280;23691;52.486;4.650;2022-12-07T05:10:36;101803.91;;;5.98;76.88
37852;BME280;23691;52.486;4.650;2022-12-07T05:13:02;101815.38;;;5.99;77.08
37852;BME280;23691;52.486;4.650;2022-12-07T05:15:27;101815.47;;;5.97;77.34
37852;BME280;23691;52.486;4.650;2022-12-07T05:17:53;101813.66;;;5.98;77.53
37852;BME280;23691;52.486;4.650;2022-12-07T05:20:18;101813.78;;;5.96;77.83
37852;BME280;23691;52.486;4.650;2022-12-07T05:22:43;101806.75;;;5.95;78.02
37852;BME280;23691;52.486;4.650;2022-12-07T05:25:09;101804.09;;;5.95;78.12
37852;BME280;23691;52.486;4.650;2022-12-07T05:27:34;101798.03;;;5.93;78.33
37852;BME280;23691;52.486;4.650;2022-12-07T05:30:00;101785.84;;;5.91;78.46
37852;BME280;23691;52.486;4.650;2022-12-07T05:32:25;101790.28;;;5.90;78.63
37852;BME280;23691;52.486;4.650;2022-12-07T05:34:52;101797.00;;;5.83;78.70
37852;BME280;23691;52.486;4.650;2022-12-07T05:37:19;101795.63;;;5.77;78.88
37852;BME280;23691;52.486;4.650;2022-12-07T05:39:45;101802.97;;;5.74;79.17
37852;BME280;23691;52.486;4.650;2022-12-07T05:42:11;101801.41;;;5.71;79.20
37852;BME280;23691;52.486;4.650;2022-12-07T05:44:38;101789.38;;;5.66;79.31
37852;BME280;23691;52.486;4.650;2022-12-07T05:47:03;101799.47;;;5.60;79.29
37852;BME280;23691;52.486;4.650;2022-12-07T05:49:29;101799.63;;;5.59;79.50
37852;BME280;23691;52.486;4.650;2022-12-07T05:51:55;101799.63;;;5.59;79.64
37852;BME280;23691;52.486;4.650;2022-12-07T05:54:20;101797.81;;;5.59;79.82
37852;BME280;23691;52.486;4.650;2022-12-07T05:56:45;101796.72;;;5.62;79.70
37852;BME280;23691;52.486;4.650;2022-12-07T05:59:11;101804.03;;;5.58;79.92
37852;BME280;23691;52.486;4.650;2022-12-07T06:01:57;101806.00;;;5.56;79.90
37852;BME280;23691;52.486;4.650;2022-12-07T06:04:28;101810.31;;;5.57;79.76
37852;BME280;23691;52.486;4.650;2022-12-07T06:06:55;101801.41;;;5.58;79.69
37852;BME280;23691;52.486;4.650;2022-12-07T06:09:22;101796.00;;;5.60;79.71
37852;BME280;23691;52.486;4.650;2022-12-07T06:11:48;101786.13;;;5.62;79.69
37852;BME280;23691;52.486;4.650;2022-12-07T06:14:32;101791.53;;;5.60;79.57
37852;BME280;23691;52.486;4.650;2022-12-07T06:17:01;101792.16;;;5.64;79.60
37852;BME280;23691;52.486;4.650;2022-12-07T06:19:29;101786.94;;;5.63;79.56
37852;BME280;23691;52.486;4.650;2022-12-07T06:21:55;101794.06;;;5.62;79.32
37852;BME280;23691;52.486;4.650;2022-12-07T06:24:20;101796.81;;;5.60;79.42
37852;BME280;23691;52.486;4.650;2022-12-07T06:26:46;101791.53;;;5.60;79.52
37852;BME280;23691;52.486;4.650;2022-12-07T06:29:12;101799.72;;;5.57;79.50
37852;BME280;23691;52.486;4.650;2022-12-07T06:31:38;101796.09;;;5.58;79.49
37852;BME280;23691;52.486;4.650;2022-12-07T06:34:06;101796.22;;;5.57;79.60
37852;BME280;23691;52.486;4.650;2022-12-07T06:36:32;101795.47;;;5.55;79.12
37852;BME280;23691;52.486;4.650;2022-12-07T06:38:58;101797.50;;;5.51;79.32
37852;BME280;23691;52.486;4.650;2022-12-07T06:41:23;101790.69;;;5.47;79.20
37852;BME280;23691;52.486;4.650;2022-12-07T06:43:49;101794.53;;;5.43;79.30
37852;BME280;23691;52.486;4.650;2022-12-07T06:46:15;101796.66;;;5.38;79.33
37852;BME280;23691;52.486;4.650;2022-12-07T06:48:41;101797.81;;;5.34;79.38
37852;BME280;23691;52.486;4.650;2022-12-07T06:51:07;101804.31;;;5.30;79.27
37852;BME280;23691;52.486;4.650;2022-12-07T06:53:33;101805.59;;;5.24;79.50
37852;BME280;23691;52.486;4.650;2022-12-07T06:55:59;101800.47;;;5.21;79.55
37852;BME280;23691;52.486;4.650;2022-12-07T06:58:24;101804.31;;;5.17;79.46
37852;BME280;23691;52.486;4.650;2022-12-07T07:00:50;101804.31;;;5.17;79.43
37852;BME280;23691;52.486;4.650;2022-12-07T07:03:16;101795.59;;;5.15;79.41
37852;BME280;23691;52.486;4.650;2022-12-07T07:05:42;101798.13;;;5.16;79.37
37852;BME280;23691;52.486;4.650;2022-12-07T07:08:08;101799.00;;;5.17;79.30
37852;BME280;23691;52.486;4.650;2022-12-07T07:10:36;101808.75;;;5.16;79.48
37852;BME280;23691;52.486;4.650;2022-12-07T07:13:02;101812.28;;;5.17;79.24
37852;BME280;23691;52.486;4.650;2022-12-07T07:15:28;101822.44;;;5.23;79.48
37852;BME280;23691;52.486;4.650;2022-12-07T07:17:53;101834.34;;;5.30;79.41
37852;BME280;23691;52.486;4.650;2022-12-07T07:20:19;101825.22;;;5.34;79.20
37852;BME280;23691;52.486;4.650;2022-12-07T07:22:44;101826.69;;;5.38;79.40
37852;BME280;23691;52.486;4.650;2022-12-07T07:25:10;101820.31;;;5.41;79.39
37852;BME280;23691;52.486;4.650;2022-12-07T07:27:35;101810.44;;;5.43;79.64
37852;BME280;23691;52.486;4.650;2022-12-07T07:30:00;101813.63;;;5.48;79.66
37852;BME280;23691;52.486;4.650;2022-12-07T07:32:26;101810.78;;;5.51;79.30
37852;BME280;23691;52.486;4.650;2022-12-07T07:34:51;101805.34;;;5.53;79.43
37852;BME280;23691;52.486;4.650;2022-12-07T07:37:17;101800.88;;;5.53;79.51
37852;BME280;23691;52.486;4.650;2022-12-07T07:39:42;101806.00;;;5.56;79.42
37852;BME280;23691;52.486;4.650;2022-12-07T07:42:07;101803.94;;;5.60;79.38
37852;BME280;23691;52.486;4.650;2022-12-07T07:44:34;101805.63;;;5.61;79.14
37852;BME280;23691;52.486;4.650;2022-12-07T07:46:59;101806.38;;;5.63;79.17
37852;BME280;23691;52.486;4.650;2022-12-07T07:49:25;101813.28;;;5.66;79.15
37852;BME280;23691;52.486;4.650;2022-12-07T07:51:51;101812.34;;;5.67;79.14
37852;BME280;23691;52.486;4.650;2022-12-07T07:54:16;101809.47;;;5.70;78.87
37852;BME280;23691;52.486;4.650;2022-12-07T07:56:42;101805.00;;;5.70;78.79
37852;BME280;23691;52.486;4.650;2022-12-07T07:59:07;101812.13;;;5.70;78.79
37852;BME280;23691;52.486;4.650;2022-12-07T08:01:33;101808.72;;;5.68;78.90
37852;BME280;23691;52.486;4.650;2022-12-07T08:03:58;101813.19;;;5.67;79.04
37852;BME280;23691;52.486;4.650;2022-12-07T08:06:24;101823.91;;;5.66;79.00
37852;BME280;23691;52.486;4.650;2022-12-07T08:08:50;101839.13;;;5.64;79.16
37852;BME280;23691;52.486;4.650;2022-12-07T08:11:16;101841.22;;;5.58;79.52
37852;BME280;23691;52.486;4.650;2022-12-07T08:13:41;101833.59;;;5.54;79.56
37852;BME280;23691;52.486;4.650;2022-12-07T08:16:09;101832.63;;;5.55;79.95
37852;BME280;23691;52.486;4.650;2022-12-07T08:18:36;101820.94;;;5.57;80.09
37852;BME280;23691;52.486;4.650;2022-12-07T08:21:02;101822.53;;;5.60;79.90
37852;BME280;23691;52.486;4.650;2022-12-07T08:23:30;101817.00;;;5.63;79.73
37852;BME280;23691;52.486;4.650;2022-12-07T08:26:04;101810.44;;;5.69;80.05
37852;BME280;23691;52.486;4.650;2022-12-07T08:28:30;101813.59;;;5.74;80.15
37852;BME280;23691;52.486;4.650;2022-12-07T08:31:06;101814.97;;;5.79;80.03
37852;BME280;23691;52.486;4.650;2022-12-07T08:33:32;101823.91;;;5.78;80.24
37852;BME280;23691;52.486;4.650;2022-12-07T08:36:06;101828.13;;;5.81;79.99
37852;BME280;23691;52.486;4.650;2022-12-07T08:38:34;101833.47;;;5.81;80.27
37852;BME280;23691;52.486;4.650;2022-12-07T08:41:00;101830.56;;;5.84;80.10
37852;BME280;23691;52.486;4.650;2022-12-07T08:43:25;101832.38;;;5.84;80.10
37852;BME280;23691;52.486;4.650;2022-12-07T08:46:10;101825.13;;;5.86;80.22
37852;BME280;23691;52.486;4.650;2022-12-07T08:48:45;101823.72;;;5.93;80.07
37852;BME280;23691;52.486;4.650;2022-12-07T08:51:12;101822.38;;;6.00;80.08
37852;BME280;23691;52.486;4.650;2022-12-07T08:53:38;101811.66;;;6.01;80.07
37852;BME280;23691;52.486;4.650;2022-12-07T08:56:05;101811.53;;;6.03;80.11
37852;BME280;23691;52.486;4.650;2022-12-07T08:58:33;101805.16;;;6.06;80.33
37852;BME280;23691;52.486;4.650;2022-12-07T09:00:59;101804.69;;;6.12;80.21
37852;BME280;23691;52.486;4.650;2022-12-07T09:03:24;101800.53;;;6.20;80.02
37852;BME280;23691;52.486;4.650;2022-12-07T09:05:50;101800.69;;;6.30;80.01
37852;BME280;23691;52.486;4.650;2022-12-07T09:08:15;101801.38;;;6.45;79.69
37852;BME280;23691;52.486;4.650;2022-12-07T09:10:41;101800.72;;;6.65;79.48
37852;BME280;23691;52.486;4.650;2022-12-07T09:13:06;101806.44;;;6.72;79.60
37852;BME280;23691;52.486;4.650;2022-12-07T09:15:32;101797.81;;;6.69;79.61
37852;BME280;23691;52.486;4.650;2022-12-07T09:17:58;101803.13;;;6.69;79.87
37852;BME280;23691;52.486;4.650;2022-12-07T09:20:23;101798.78;;;6.68;79.75
37852;BME280;23691;52.486;4.650;2022-12-07T09:22:49;101800.03;;;6.75;79.62
37852;BME280;23691;52.486;4.650;2022-12-07T09:25:14;101803.09;;;6.93;79.28
37852;BME280;23691;52.486;4.650;2022-12-07T09:27:40;101806.50;;;6.95;79.27
37852;BME280;23691;52.486;4.650;2022-12-07T09:30:06;101810.59;;;6.87;79.07
37852;BME280;23691;52.486;4.650;2022-12-07T09:32:32;101824.22;;;6.83;79.40
37852;BME280;23691;52.486;4.650;2022-12-07T09:34:57;101820.22;;;6.77;79.31
37852;BME280;23691;52.486;4.650;2022-12-07T09:37:23;101818.00;;;6.71;79.34
37852;BME280;23691;52.486;4.650;2022-12-07T09:39:48;101823.06;;;6.63;79.50
37852;BME280;23691;52.486;4.650;2022-12-07T09:42:29;101818.69;;;6.62;79.58
37852;BME280;23691;52.486;4.650;2022-12-07T09:44:56;101815.34;;;6.60;79.53
37852;BME280;23691;52.486;4.650;2022-12-07T09:47:23;101819.44;;;6.64;79.44
37852;BME280;23691;52.486;4.650;2022-12-07T09:49:49;101817.19;;;6.71;79.46
37852;BME280;23691;52.486;4.650;2022-12-07T09:52:25;101815.50;;;6.81;79.08
37852;BME280;23691;52.486;4.650;2022-12-07T09:54:52;101803.56;;;6.86;79.02
37852;BME280;23691;52.486;4.650;2022-12-07T09:57:20;101806.34;;;6.85;79.15
37852;BME280;23691;52.486;4.650;2022-12-07T09:59:49;101809.00;;;6.85;79.02
37852;BME280;23691;52.486;4.650;2022-12-07T10:04:49;101796.28;;;6.77;79.14
37852;BME280;23691;52.486;4.650;2022-12-07T10:07:14;101798.22;;;6.75;78.81
37852;BME280;23691;52.486;4.650;2022-12-07T10:09:39;101796.63;;;6.73;78.33
37852;BME280;23691;52.486;4.650;2022-12-07T10:12:08;101792.25;;;6.72;77.66
37852;BME280;23691;52.486;4.650;2022-12-07T10:14:37;101792.25;;;6.72;77.25
37852;BME280;23691;52.486;4.650;2022-12-07T10:17:02;101787.56;;;6.75;77.04
37852;BME280;23691;52.486;4.650;2022-12-07T10:19:28;101785.66;;;6.77;76.78
37852;BME280;23691;52.486;4.650;2022-12-07T10:22:15;101783.50;;;6.82;76.27
37852;BME280;23691;52.486;4.650;2022-12-07T10:24:47;101787.59;;;6.86;76.46
37852;BME280;23691;52.486;4.650;2022-12-07T10:27:31;101781.72;;;6.94;76.25
37852;BME280;23691;52.486;4.650;2022-12-07T10:29:57;101785.06;;;6.96;75.84
37852;BME280;23691;52.486;4.650;2022-12-07T10:32:33;101781.13;;;7.02;75.25
37852;BME280;23691;52.486;4.650;2022-12-07T10:37:49;101778.59;;;7.12;74.20
37852;BME280;23691;52.486;4.650;2022-12-07T10:40:35;101778.81;;;7.20;72.75
37852;BME280;23691;52.486;4.650;2022-12-07T10:48:42;101765.38;;;7.55;70.23
37852;BME280;23691;52.486;4.650;2022-12-07T10:54:15;101756.91;;;7.50;69.53
37852;BME280;23691;52.486;4.650;2022-12-07T10:56:55;101756.59;;;7.43;69.43
37852;BME280;23691;52.486;4.650;2022-12-07T11:02:50;101752.34;;;7.29;69.05
37852;BME280;23691;52.486;4.650;2022-12-07T11:05:42;101761.19;;;7.41;69.08
37852;BME280;23691;52.486;4.650;2022-12-07T11:11:14;101757.66;;;7.41;69.67
37852;BME280;23691;52.486;4.650;2022-12-07T11:19:05;101751.09;;;7.11;71.57
37852;BME280;23691;52.486;4.650;2022-12-07T11:24:04;101746.63;;;7.00;71.99
37852;BME280;23691;52.486;4.650;2022-12-07T11:27:11;101742.28;;;7.10;71.93
37852;BME280;23691;52.486;4.650;2022-12-07T11:32:17;101743.84;;;7.13;71.69
37852;BME280;23691;52.486;4.650;2022-12-07T11:37:23;101732.25;;;7.14;71.62
37852;BME280;23691;52.486;4.650;2022-12-07T11:39:54;101721.97;;;7.21;71.31
37852;BME280;23691;52.486;4.650;2022-12-07T11:42:25;101719.31;;;7.32;71.48
37852;BME280;23691;52.486;4.650;2022-12-07T11:45:10;101708.41;;;7.35;70.96
37852;BME280;23691;52.486;4.650;2022-12-07T11:47:52;101705.63;;;7.37;70.90
37852;BME280;23691;52.486;4.650;2022-12-07T11:50:27;101709.25;;;7.47;70.54
37852;BME280;23691;52.486;4.650;2022-12-07T11:53:03;101712.38;;;7.52;70.40
37852;BME280;23691;52.486;4.650;2022-12-07T11:55:47;101710.34;;;7.56;69.78
37852;BME280;23691;52.486;4.650;2022-12-07T12:01:08;101705.50;;;7.49;69.67
37852;BME280;23691;52.486;4.650;2022-12-07T12:03:38;101715.03;;;7.41;69.97
37852;BME280;23691;52.486;4.650;2022-12-07T12:06:05;101716.13;;;7.38;70.16
37852;BME280;23691;52.486;4.650;2022-12-07T12:08:38;101712.16;;;7.32;70.34
37852;BME280;23691;52.486;4.650;2022-12-07T12:14:30;101694.50;;;7.20;70.89
37852;BME280;23691;52.486;4.650;2022-12-07T12:17:26;101687.59;;;7.18;70.94
37852;BME280;23691;52.486;4.650;2022-12-07T12:22:36;101687.00;;;7.14;70.60
37852;BME280;23691;52.486;4.650;2022-12-07T12:25:05;101686.75;;;7.17;70.44
37852;BME280;23691;52.486;4.650;2022-12-07T12:27:35;101688.91;;;7.23;70.41
37852;BME280;23691;52.486;4.650;2022-12-07T12:30:05;101682.03;;;7.21;69.95
37852;BME280;23691;52.486;4.650;2022-12-07T12:32:41;101669.34;;;7.13;69.86
37852;BME280;23691;52.486;4.650;2022-12-07T12:35:29;101668.59;;;7.11;70.00
37852;BME280;23691;52.486;4.650;2022-12-07T12:38:25;101661.50;;;7.12;70.22
37852;BME280;23691;52.486;4.650;2022-12-07T12:40:53;101660.25;;;7.16;70.34
37852;BME280;23691;52.486;4.650;2022-12-07T12:48:56;101644.16;;;7.28;71.05
37852;BME280;23691;52.486;4.650;2022-12-07T12:51:41;101647.16;;;7.35;71.00
37852;BME280;23691;52.486;4.650;2022-12-07T12:54:21;101633.50;;;7.40;70.81
37852;BME280;23691;52.486;4.650;2022-12-07T12:59:32;101638.66;;;7.52;69.72
37852;BME280;23691;52.486;4.650;2022-12-07T13:23:32;101600.59;;;7.94;67.80
37852;BME280;23691;52.486;4.650;2022-12-07T13:26:20;101602.81;;;7.89;67.43
37852;BME280;23691;52.486;4.650;2022-12-07T13:29:11;101601.63;;;7.82;66.97
37852;BME280;23691;52.486;4.650;2022-12-07T13:36:56;101606.31;;;7.68;67.50
37852;BME280;23691;52.486;4.650;2022-12-07T13:39:24;101601.72;;;7.59;67.58
37852;BME280;23691;52.486;4.650;2022-12-07T13:41:55;101603.72;;;7.46;68.01
37852;BME280;23691;52.486;4.650;2022-12-07T13:44:23;101600.44;;;7.42;68.47
37852;BME280;23691;52.486;4.650;2022-12-07T13:47:07;101601.44;;;7.41;68.77
37852;BME280;23691;52.486;4.650;2022-12-07T13:49:52;101593.09;;;7.35;68.73
37852;BME280;23691;52.486;4.650;2022-12-07T13:57:24;101585.69;;;7.38;68.56
37852;BME280;23691;52.486;4.650;2022-12-07T13:59:50;101575.28;;;7.35;68.30
37852;BME280;23691;52.486;4.650;2022-12-07T14:02:34;101576.28;;;7.34;68.06
37852;BME280;23691;52.486;4.650;2022-12-07T14:05:27;101568.28;;;7.34;67.95
37852;BME280;23691;52.486;4.650;2022-12-07T14:10:38;101574.34;;;7.25;67.54
37852;BME280;23691;52.486;4.650;2022-12-07T14:13:31;101571.44;;;7.28;67.71
37852;BME280;23691;52.486;4.650;2022-12-07T14:16:03;101576.28;;;7.23;68.01
37852;BME280;23691;52.486;4.650;2022-12-07T14:21:22;101570.03;;;7.24;68.35
37852;BME280;23691;52.486;4.650;2022-12-07T14:24:19;101567.22;;;7.25;68.48
37852;BME280;23691;52.486;4.650;2022-12-07T14:26:49;101565.06;;;7.19;68.80
37852;BME280;23691;52.486;4.650;2022-12-07T14:29:32;101563.63;;;7.15;68.80
37852;BME280;23691;52.486;4.650;2022-12-07T14:32:20;101568.47;;;7.10;69.24
37852;BME280;23691;52.486;4.650;2022-12-07T14:34:56;101559.41;;;7.01;70.09
37852;BME280;23691;52.486;4.650;2022-12-07T14:37:23;101557.13;;;6.97;70.53
37852;BME280;23691;52.486;4.650;2022-12-07T14:39:49;101553.03;;;6.93;70.81
37852;BME280;23691;52.486;4.650;2022-12-07T14:42:14;101554.13;;;6.90;71.31
37852;BME280;23691;52.486;4.650;2022-12-07T14:44:40;101551.47;;;6.90;71.27
37852;BME280;23691;52.486;4.650;2022-12-07T14:47:09;101553.13;;;6.91;71.44
37852;BME280;23691;52.486;4.650;2022-12-07T14:49:35;101550.47;;;6.91;71.13
37852;BME280;23691;52.486;4.650;2022-12-07T14:52:00;101544.31;;;6.91;71.08
37852;BME280;23691;52.486;4.650;2022-12-07T14:54:30;101551.47;;;6.90;70.88
37852;BME280;23691;52.486;4.650;2022-12-07T14:56:56;101563.03;;;6.89;70.67
37852;BME280;23691;52.486;4.650;2022-12-07T14:59:21;101549.06;;;6.87;70.60
37852;BME280;23691;52.486;4.650;2022-12-07T15:01:47;101546.38;;;6.87;70.41
37852;BME280;23691;52.486;4.650;2022-12-07T15:04:12;101545.53;;;6.86;70.47
37852;BME280;23691;52.486;4.650;2022-12-07T15:06:38;101541.06;;;6.87;70.29
37852;BME280;23691;52.486;4.650;2022-12-07T15:09:04;101550.00;;;6.86;70.08
37852;BME280;23691;52.486;4.650;2022-12-07T15:11:29;101544.09;;;6.82;69.92
37852;BME280;23691;52.486;4.650;2022-12-07T15:13:55;101537.94;;;6.82;69.43
37852;BME280;23691;52.486;4.650;2022-12-07T15:16:40;101547.13;;;6.78;69.41